Time;durP1;ratioP1;P1;durP2;ratioP2;P2;SDS_P1;SDS_P2;PMS_P1;PMS_P2;Temp;Humidity;BMP_temperature;BMP_pressure;BME280_temperature;BME280_humidity;BME280_pressure;Samples;Min_cycle;Max_cycle;Signal;HPM_P1;HPM_P2
2023/01/20 00:02:25;;;;;;;49.80;29.65;;;-0.60;99.90;;;-2.04;100.00;96664.34;5077770;28;20404;-75
2023/01/20 00:04:52;;;;;;;56.88;30.80;;;-0.60;99.90;;;-2.06;100.00;96664.53;5090034;28;20410;-75
2023/01/20 00:07:18;;;;;;;48.13;28.38;;;-0.60;99.90;;;-2.05;100.00;96663.53;5090830;28;20406;-75
2023/01/20 00:09:44;;;;;;;45.22;28.08;;;-0.60;99.90;;;-2.03;100.00;96671.13;5090955;28;20410;-75
2023/01/20 00:12:09;;;;;;;47.60;28.48;;;-0.60;99.90;;;-2.02;100.00;96678.69;5089688;28;20433;-75
2023/01/20 00:14:35;;;;;;;46.25;27.30;;;-0.60;99.90;;;-1.99;100.00;96677.53;5106466;28;20722;-75
2023/01/20 00:17:01;;;;;;;42.63;25.80;;;-0.60;99.90;;;-1.97;100.00;96684.13;5090333;28;20412;-75
2023/01/20 00:19:27;;;;;;;50.30;29.77;;;-0.50;99.90;;;-1.97;100.00;96680.75;5090825;28;20402;-75
2023/01/20 00:21:54;;;;;;;48.40;28.30;;;-0.50;99.90;;;-1.96;100.00;96687.53;5090361;28;20410;-75
2023/01/20 00:24:20;;;;;;;44.00;26.90;;;-0.50;99.90;;;-1.96;100.00;96677.97;5090691;28;20402;-76
2023/01/20 00:26:46;;;;;;;42.88;25.35;;;-0.50;99.90;;;-1.94;100.00;96690.72;5090246;28;20501;-76
2023/01/20 00:29:12;;;;;;;45.63;27.77;;;-0.50;99.90;;;-1.95;100.00;96687.31;5090384;28;20449;-75
2023/01/20 00:31:38;;;;;;;42.67;25.30;;;-0.50;99.90;;;-1.92;100.00;96693.94;5090588;28;20414;-76
2023/01/20 00:34:04;;;;;;;43.78;26.63;;;-0.50;99.90;;;-1.91;100.00;96695.53;5089616;28;20416;-74
2023/01/20 00:36:31;;;;;;;45.93;27.37;;;-0.50;99.90;;;-1.90;100.00;96698.94;5090412;28;20706;-75
2023/01/20 00:39:01;;;;;;;47.93;28.17;;;-0.50;99.90;;;-1.92;100.00;96698.31;5090177;28;20883;-76
2023/01/20 00:41:27;;;;;;;47.85;28.02;;;-0.50;99.90;;;-1.93;100.00;96701.91;5089480;28;20409;-76
2023/01/20 00:43:53;;;;;;;51.90;30.10;;;-0.50;99.90;;;-1.95;100.00;96702.88;5088912;28;20403;-76
2023/01/20 00:46:21;;;;;;;46.38;28.63;;;-0.50;99.90;;;-1.97;100.00;96711.88;5089814;28;20406;-76
2023/01/20 00:48:47;;;;;;;44.80;26.38;;;-0.50;99.90;;;-1.97;100.00;96709.25;5089781;28;20910;-76
2023/01/20 00:51:13;;;;;;;45.40;26.58;;;-0.60;99.90;;;-1.95;100.00;96715.03;5090284;28;20398;-76
2023/01/20 00:53:39;;;;;;;42.78;25.27;;;-0.50;99.90;;;-1.94;100.00;96714.06;5090344;28;20398;-76
2023/01/20 00:56:07;;;;;;;42.50;26.65;;;-0.50;99.90;;;-1.92;100.00;96713.88;5090220;28;20993;-76
2023/01/20 00:58:33;;;;;;;43.42;26.95;;;-0.50;99.90;;;-1.91;100.00;96718.88;5089929;28;20467;-76
2023/01/20 01:00:59;;;;;;;44.60;27.33;;;-0.50;99.90;;;-1.92;100.00;96724.25;5089811;28;20887;-76
2023/01/20 01:03:29;;;;;;;44.10;26.55;;;-0.50;99.90;;;-1.93;100.00;96726.03;5088575;28;20454;-76
2023/01/20 01:06:09;;;;;;;42.35;25.58;;;-0.50;99.90;;;-1.93;100.00;96726.03;5090095;28;20408;-76
2023/01/20 01:08:35;;;;;;;41.65;25.67;;;-0.50;99.90;;;-1.92;100.00;96732.84;5090084;28;20421;-76
2023/01/20 01:11:01;;;;;;;43.80;25.97;;;-0.50;99.90;;;-1.92;100.00;96735.44;5089560;28;20409;-76
2023/01/20 01:13:28;;;;;;;42.83;25.52;;;-0.50;99.90;;;-1.92;100.00;96739.81;5090245;28;20408;-76
2023/01/20 01:15:54;;;;;;;45.70;26.75;;;-0.50;99.90;;;-1.94;100.00;96737.41;5089801;28;20489;-76
2023/01/20 01:18:20;;;;;;;39.67;24.70;;;-0.50;99.90;;;-1.96;100.00;96736.81;5090029;28;20485;-76
2023/01/20 01:20:46;;;;;;;40.25;25.13;;;-0.50;99.90;;;-1.99;100.00;96737.97;5089974;28;20450;-76
2023/01/20 01:23:12;;;;;;;39.23;24.90;;;-0.50;99.90;;;-1.98;100.00;96741.38;5090116;28;20410;-76
2023/01/20 01:25:38;;;;;;;45.35;25.65;;;-0.60;99.90;;;-2.01;100.00;96750.31;5088245;28;20421;-76
2023/01/20 01:28:04;;;;;;;46.03;26.13;;;-0.60;99.90;;;-2.03;100.00;96743.75;5089193;28;20406;-76
2023/01/20 01:30:32;;;;;;;44.05;25.27;;;-0.60;99.90;;;-2.06;100.00;96755.28;5089933;28;20892;-76
2023/01/20 01:32:58;;;;;;;36.20;23.15;;;-0.60;99.90;;;-2.06;100.00;96750.09;5090182;28;20402;-76
2023/01/20 01:35:24;;;;;;;37.22;21.77;;;-0.60;99.90;;;-2.04;100.00;96757.69;5089519;28;20768;-76
2023/01/20 01:37:49;;;;;;;38.67;22.77;;;-0.60;99.90;;;-2.05;100.00;96754.28;5088373;28;20460;-76
2023/01/20 01:40:16;;;;;;;38.72;22.65;;;-0.60;99.90;;;-2.04;100.00;96760.28;5087384;28;20405;-76
2023/01/20 01:42:42;;;;;;;37.57;20.93;;;-0.60;99.90;;;-2.01;100.00;96757.28;5089530;28;20937;-76
2023/01/20 01:45:24;;;;;;;38.92;21.98;;;-0.60;99.90;;;-2.01;100.00;96758.09;5087893;28;20416;-76
2023/01/20 01:48:00;;;;;;;36.60;21.33;;;-0.60;99.90;;;-2.00;100.00;96764.09;5089252;28;20398;-76
2023/01/20 01:50:35;;;;;;;31.83;18.63;;;-0.60;99.90;;;-1.97;100.00;96769.72;5089703;28;20779;-76
2023/01/20 01:53:01;;;;;;;42.83;24.17;;;-0.60;99.90;;;-1.95;100.00;96767.72;5090573;28;20405;-76
2023/01/20 01:55:33;;;;;;;41.10;22.50;;;-0.50;99.90;;;-1.95;100.00;96766.91;5093649;28;20402;-76
2023/01/20 01:58:01;;;;;;;35.85;20.80;;;-0.50;99.90;;;-1.96;100.00;96767.94;5093127;28;20417;-76
2023/01/20 02:00:27;;;;;;;41.60;21.40;;;-0.50;99.90;;;-1.98;100.00;96768.09;5093195;28;20402;-76
2023/01/20 02:02:56;;;;;;;34.15;19.75;;;-0.50;99.90;;;-1.98;100.00;96769.91;5093172;28;20543;-76
2023/01/20 02:05:25;;;;;;;39.33;19.65;;;-0.60;99.90;;;-2.00;100.00;96775.25;5093419;28;20394;-76
2023/01/20 02:07:52;;;;;;;33.30;19.35;;;-0.60;99.90;;;-2.01;100.00;96771.06;5093234;28;20428;-76
2023/01/20 02:10:18;;;;;;;33.70;18.97;;;-0.60;99.90;;;-2.01;100.00;96765.88;5093274;28;20421;-76
2023/01/20 02:12:48;;;;;;;33.80;19.13;;;-0.60;99.90;;;-2.00;100.00;96771.88;5093467;28;20699;-76
2023/01/20 02:15:15;;;;;;;31.17;18.03;;;-0.60;99.90;;;-2.02;100.00;96768.66;5091827;28;20452;-76
2023/01/20 02:17:56;;;;;;;31.67;17.60;;;-0.60;99.90;;;-1.99;100.00;96768.28;5093014;28;20394;-76
2023/01/20 02:21:18;;;;;;;28.77;16.38;;;-0.60;99.90;;;-1.95;100.00;96775.50;5092773;28;20433;-76
2023/01/20 02:24:37;;;;;;;32.07;17.53;;;-0.50;99.90;;;-1.91;100.00;96780.31;5093129;28;20983;-76
2023/01/20 02:27:10;;;;;;;30.90;18.07;;;-0.50;99.90;;;-1.88;100.00;96777.38;5092213;28;20887;-76
2023/01/20 02:30:24;;;;;;;31.20;18.10;;;-0.50;99.90;;;-1.87;100.00;96782.34;5092522;28;20802;-76
2023/01/20 02:32:57;;;;;;;37.22;20.23;;;-0.40;99.90;;;-1.86;100.00;96778.75;5073380;28;20431;-76
2023/01/20 02:35:28;;;;;;;34.50;19.90;;;-0.40;99.90;;;-1.86;100.00;96781.34;5092898;28;20406;-76
2023/01/20 02:38:10;;;;;;;32.40;18.73;;;-0.40;99.90;;;-1.82;100.00;96786.97;5092559;28;20463;-76
2023/01/20 02:40:49;;;;;;;33.22;18.25;;;-0.40;99.90;;;-1.80;100.00;96784.97;5092372;28;20402;-76
2023/01/20 02:43:28;;;;;;;33.25;18.25;;;-0.40;99.90;;;-1.76;100.00;96786.22;5091857;28;20459;-76
2023/01/20 02:46:01;;;;;;;34.75;19.08;;;-0.40;99.90;;;-1.72;100.00;96790.03;5091229;28;20429;-76
2023/01/20 02:48:35;;;;;;;35.22;19.70;;;-0.30;99.90;;;-1.70;100.00;96790.66;5092224;28;20409;-76
2023/01/20 02:51:08;;;;;;;30.13;17.52;;;-0.30;99.90;;;-1.68;100.00;96794.69;5092500;28;20445;-76
2023/01/20 02:53:42;;;;;;;34.95;19.05;;;-0.30;99.90;;;-1.65;100.00;96794.28;5092227;28;20410;-76
2023/01/20 02:56:10;;;;;;;38.72;20.88;;;-0.30;99.90;;;-1.63;100.00;96802.69;5076785;28;20414;-76
2023/01/20 02:58:43;;;;;;;38.20;21.37;;;-0.20;99.90;;;-1.63;100.00;96797.50;5107778;28;20868;-76
2023/01/20 03:01:16;;;;;;;38.28;21.95;;;-0.20;99.90;;;-1.62;100.00;96803.50;5091487;28;20410;-76
2023/01/20 03:03:49;;;;;;;38.15;21.48;;;-0.20;99.90;;;-1.62;100.00;96801.69;5091406;28;20398;-76
2023/01/20 03:06:21;;;;;;;39.97;22.30;;;-0.20;99.90;;;-1.62;100.00;96804.28;5092186;28;20407;-76
2023/01/20 03:08:51;;;;;;;40.40;22.60;;;-0.20;99.90;;;-1.60;100.00;96809.31;5091923;28;20489;-76
2023/01/20 03:11:18;;;;;;;41.60;23.70;;;-0.20;99.90;;;-1.61;100.00;96810.28;5091820;28;20937;-76
2023/01/20 03:13:50;;;;;;;43.15;23.83;;;-0.20;99.90;;;-1.59;100.00;96822.09;5092270;28;20797;-77
2023/01/20 03:16:21;;;;;;;43.55;24.45;;;-0.20;99.90;;;-1.59;100.00;96814.31;5092066;28;20402;-76
2023/01/20 03:18:50;;;;;;;43.10;24.50;;;-0.20;99.90;;;-1.57;100.00;96816.69;5091682;28;20444;-77
2023/01/20 03:21:16;;;;;;;46.90;25.48;;;-0.20;99.90;;;-1.56;100.00;96820.91;5091819;28;20455;-76
2023/01/20 03:23:47;;;;;;;42.80;23.35;;;-0.20;99.90;;;-1.53;100.00;96824.91;5091894;28;20410;-76
2023/01/20 03:26:16;;;;;;;44.40;23.80;;;-0.20;99.90;;;-1.53;100.00;96824.91;5091703;28;20420;-76
2023/01/20 03:28:44;;;;;;;43.65;24.13;;;-0.20;99.90;;;-1.54;100.00;96821.50;5090441;28;20402;-76
2023/01/20 03:31:16;;;;;;;47.08;24.23;;;-0.20;99.90;;;-1.59;100.00;96826.47;5091388;28;20407;-76
2023/01/20 03:33:43;;;;;;;39.25;21.40;;;-0.20;99.90;;;-1.59;100.00;96822.09;5091591;28;20406;-76
2023/01/20 03:36:12;;;;;;;45.05;23.50;;;-0.20;99.90;;;-1.59;100.00;96829.06;5091588;28;20402;-76
2023/01/20 03:38:38;;;;;;;46.03;22.73;;;-0.20;99.90;;;-1.60;100.00;96832.66;5091387;28;20454;-76
2023/01/20 03:41:13;;;;;;;42.67;22.98;;;-0.20;99.90;;;-1.61;100.00;96831.03;5090971;28;20406;-76
2023/01/20 03:43:48;;;;;;;39.53;22.33;;;-0.20;99.90;;;-1.63;100.00;96831.22;5090763;28;20467;-76
2023/01/20 03:46:26;;;;;;;44.25;23.10;;;-0.20;99.90;;;-1.66;100.00;96831.63;5091471;28;20815;-76
2023/01/20 03:49:00;;;;;;;44.13;23.52;;;-0.30;99.90;;;-1.65;100.00;96840.19;5089896;28;20501;-76
2023/01/20 03:51:38;;;;;;;43.53;23.25;;;-0.30;99.90;;;-1.68;100.00;96843.97;5083679;28;20434;-76
2023/01/20 03:54:09;;;;;;;44.83;22.90;;;-0.30;99.90;;;-1.68;100.00;96841.38;5090788;28;20405;-76
2023/01/20 03:56:41;;;;;;;47.50;24.17;;;-0.30;99.90;;;-1.67;100.00;96842.19;5090032;28;20437;-76
2023/01/20 03:59:13;;;;;;;46.33;24.98;;;-0.30;99.90;;;-1.66;100.00;96846.38;5082327;28;20405;-76
2023/01/20 04:01:42;;;;;;;48.15;25.13;;;-0.30;99.90;;;-1.67;100.00;96842.19;5083164;28;20399;-76
2023/01/20 04:04:13;;;;;;;52.22;25.33;;;-0.30;99.90;;;-1.65;100.00;96853.16;5084386;28;20406;-76
2023/01/20 04:06:43;;;;;;;51.58;24.75;;;-0.30;99.90;;;-1.66;100.00;96854.97;5085974;28;20396;-76
2023/01/20 04:09:12;;;;;;;51.67;26.23;;;-0.30;99.90;;;-1.66;100.00;96854.16;5071768;28;20419;-76
2023/01/20 04:11:38;;;;;;;45.37;23.43;;;-0.30;99.90;;;-1.63;100.00;96852.00;5073117;28;20455;-76
2023/01/20 04:14:06;;;;;;;49.45;23.75;;;-0.20;99.90;;;-1.63;100.00;96852.00;5091070;28;20402;-76
2023/01/20 04:16:33;;;;;;;47.92;24.52;;;-0.30;99.90;;;-1.64;100.00;96860.75;5090104;28;20485;-76
2023/01/20 04:18:58;;;;;;;50.03;25.00;;;-0.30;99.90;;;-1.65;100.00;96860.94;5090721;28;20477;-76
2023/01/20 04:21:35;;;;;;;46.22;23.65;;;-0.30;99.90;;;-1.71;100.00;96859.91;5090629;28;20778;-76
2023/01/20 04:24:09;;;;;;;47.42;26.05;;;-0.40;99.90;;;-1.72;100.00;96858.28;5089410;28;20748;-76
2023/01/20 04:26:35;;;;;;;46.55;24.75;;;-0.30;99.90;;;-1.70;100.00;96865.91;5090675;28;20894;-76
2023/01/20 04:29:07;;;;;;;48.38;24.33;;;-0.30;99.90;;;-1.70;100.00;96864.09;5090501;28;20551;-76
2023/01/20 04:31:33;;;;;;;49.92;25.55;;;-0.30;99.90;;;-1.70;100.00;96864.09;5090422;28;20406;-76
2023/01/20 04:33:59;;;;;;;43.90;23.73;;;-0.30;99.90;;;-1.65;100.00;96872.13;5090709;28;20409;-76
2023/01/20 04:36:25;;;;;;;48.10;25.70;;;-0.30;99.90;;;-1.68;100.00;96877.69;5090639;28;20406;-75
2023/01/20 04:38:51;;;;;;;45.20;24.77;;;-0.30;99.90;;;-1.69;100.00;96875.28;5090176;28;20852;-76
2023/01/20 04:41:18;;;;;;;40.03;22.17;;;-0.30;99.90;;;-1.75;100.00;96873.44;5090493;28;20890;-76
2023/01/20 04:43:44;;;;;;;39.65;21.90;;;-0.40;99.90;;;-1.79;100.00;96877.38;5090429;28;20425;-75
2023/01/20 04:46:11;;;;;;;43.63;22.70;;;-0.40;99.90;;;-1.79;100.00;96874.78;5089165;28;20786;-76
2023/01/20 04:48:37;;;;;;;40.35;21.85;;;-0.40;99.90;;;-1.83;100.00;96876.97;5089966;28;20460;-75
2023/01/20 04:51:04;;;;;;;42.53;21.55;;;-0.50;99.90;;;-1.81;100.00;96871.59;5088694;28;20421;-76
2023/01/20 04:53:30;;;;;;;36.13;19.48;;;-0.50;99.90;;;-1.84;100.00;96882.34;5089447;28;20402;-76
2023/01/20 04:55:56;;;;;;;38.37;19.77;;;-0.50;99.90;;;-1.82;100.00;96882.97;5089615;28;20791;-75
2023/01/20 04:58:23;;;;;;;33.97;18.67;;;-0.40;99.90;;;-1.83;100.00;96892.53;5088046;28;20852;-75
2023/01/20 05:00:49;;;;;;;41.83;20.23;;;-0.40;99.90;;;-1.82;100.00;96888.16;5088676;28;20445;-75
2023/01/20 05:03:15;;;;;;;39.97;21.17;;;-0.40;99.90;;;-1.79;100.00;96900.72;5089975;28;20445;-76
2023/01/20 05:05:41;;;;;;;36.88;21.35;;;-0.40;99.90;;;-1.77;100.00;96901.34;5089791;28;20409;-76
2023/01/20 05:08:07;;;;;;;36.05;20.65;;;-0.40;99.90;;;-1.78;100.00;96902.34;5084890;28;20980;-75
2023/01/20 05:10:33;;;;;;;39.63;21.30;;;-0.40;99.90;;;-1.77;100.00;96906.53;5082998;28;20413;-75
2023/01/20 05:13:00;;;;;;;36.80;19.88;;;-0.40;99.90;;;-1.77;100.00;96909.94;5089456;28;20409;-75
2023/01/20 05:15:27;;;;;;;40.53;20.10;;;-0.40;99.90;;;-1.74;100.00;96921.75;5090146;28;20504;-75
2023/01/20 05:17:53;;;;;;;41.45;21.73;;;-0.30;99.90;;;-1.76;100.00;96921.94;5090007;28;20759;-75
2023/01/20 05:20:19;;;;;;;38.47;21.20;;;-0.30;99.90;;;-1.76;100.00;96927.13;5089417;28;20413;-75
2023/01/20 05:22:45;;;;;;;37.92;20.98;;;-0.40;99.90;;;-1.72;100.00;96924.94;5089952;28;20398;-75
2023/01/20 05:25:11;;;;;;;41.63;22.45;;;-0.30;99.90;;;-1.72;100.00;96924.94;5087505;28;20451;-75
2023/01/20 05:27:37;;;;;;;42.55;20.65;;;-0.30;99.90;;;-1.72;100.00;96927.53;5084544;28;20398;-74
2023/01/20 05:30:05;;;;;;;42.33;21.80;;;-0.30;99.90;;;-1.75;100.00;96931.31;5087477;28;20419;-75
2023/01/20 05:32:32;;;;;;;37.67;21.60;;;-0.30;99.90;;;-1.74;100.00;96932.13;5089379;28;20428;-73
2023/01/20 05:34:58;;;;;;;37.90;20.45;;;-0.30;99.90;;;-1.75;100.00;96933.13;5091698;28;20496;-74
2023/01/20 05:37:24;;;;;;;37.58;20.10;;;-0.30;99.90;;;-1.76;100.00;96947.06;5088364;28;20517;-75
2023/01/20 05:39:50;;;;;;;42.42;21.98;;;-0.30;99.90;;;-1.79;100.00;96953.41;5079595;28;20405;-75
2023/01/20 05:42:16;;;;;;;42.40;21.70;;;-0.40;99.90;;;-1.81;100.00;96954.59;5086220;28;20410;-75
2023/01/20 05:44:42;;;;;;;39.95;21.80;;;-0.40;99.90;;;-1.84;100.00;96957.56;5087696;28;20496;-75
2023/01/20 05:47:08;;;;;;;41.00;21.27;;;-0.40;99.90;;;-1.88;100.00;96962.28;5085464;28;20425;-77
2023/01/20 05:49:35;;;;;;;39.75;22.08;;;-0.40;99.90;;;-1.92;100.00;96957.66;5088485;28;20428;-76
2023/01/20 05:52:01;;;;;;;43.70;22.63;;;-0.50;99.90;;;-1.96;100.00;96963.22;5091352;28;20402;-74
2023/01/20 05:54:27;;;;;;;39.87;22.03;;;-0.50;99.90;;;-1.92;100.00;96960.25;5092941;28;20523;-74
2023/01/20 05:56:53;;;;;;;42.25;23.23;;;-0.50;99.90;;;-1.91;100.00;96960.09;5083172;28;20453;-75
2023/01/20 05:59:19;;;;;;;47.55;24.83;;;-0.50;99.90;;;-1.88;100.00;96966.69;5087128;22;20953;-74
2023/01/20 06:01:45;;;;;;;46.20;22.15;;;-0.50;99.90;;;-1.87;100.00;96963.91;5073399;28;20428;-74
2023/01/20 06:04:11;;;;;;;42.28;22.25;;;-0.40;99.90;;;-1.85;100.00;96974.91;5073281;28;20395;-75
2023/01/20 06:06:38;;;;;;;42.60;22.35;;;-0.40;99.90;;;-1.82;100.00;96969.38;5073212;28;20538;-73
2023/01/20 06:09:05;;;;;;;46.07;23.80;;;-0.40;99.90;;;-1.81;100.00;96963.19;5072955;28;20409;-73
2023/01/20 06:11:31;;;;;;;45.17;23.23;;;-0.40;99.90;;;-1.81;100.00;96970.16;5068756;28;20861;-72
2023/01/20 06:13:57;;;;;;;51.58;25.45;;;-0.40;99.90;;;-1.76;100.00;96978.19;5060363;28;20928;-72
2023/01/20 06:16:23;;;;;;;54.70;30.55;;;-0.40;99.90;;;-1.80;100.00;96971.75;5053030;28;20489;-73
2023/01/20 06:18:49;;;;;;;50.55;26.80;;;-0.40;99.90;;;-1.82;100.00;96971.97;5052828;28;20544;-72
2023/01/20 06:21:15;;;;;;;46.30;25.65;;;-0.40;99.90;;;-1.82;100.00;96974.56;5052925;28;20413;-74
2023/01/20 06:23:42;;;;;;;57.65;34.55;;;-0.40;99.90;;;-1.84;100.00;96986.91;5052859;28;20400;-73
2023/01/20 06:26:12;;;;;;;66.57;38.75;;;-0.50;99.90;;;-1.86;100.00;96982.88;5053009;28;20405;-73
2023/01/20 06:28:38;;;;;;;64.00;30.90;;;-0.40;99.90;;;-1.90;100.00;96987.63;5052654;28;20463;-73
2023/01/20 06:31:06;;;;;;;58.72;30.38;;;-0.50;99.90;;;-1.92;100.00;96992.19;5051503;28;20425;-73
2023/01/20 06:33:33;;;;;;;59.33;30.93;;;-0.50;99.90;;;-1.96;100.00;96996.16;5052837;28;20405;-73
2023/01/20 06:36:00;;;;;;;70.00;36.30;;;-0.50;99.90;;;-2.01;100.00;96996.66;5052499;28;20416;-73
2023/01/20 06:38:29;;;;;;;63.20;34.50;;;-0.50;99.90;;;-2.05;100.00;97007.59;5051247;28;20475;-73
2023/01/20 06:41:01;;;;;;;59.10;32.15;;;-0.60;99.90;;;-2.11;100.00;97008.31;5052739;28;20404;-73
2023/01/20 06:43:28;;;;;;;61.42;31.88;;;-0.60;99.90;;;-2.18;100.00;97015.22;5052292;28;20444;-72
2023/01/20 06:45:59;;;;;;;64.23;30.77;;;-0.70;99.90;;;-2.25;100.00;97012.50;5052426;28;20898;-73
2023/01/20 06:48:25;;;;;;;53.30;28.23;;;-0.80;99.90;;;-2.31;100.00;97017.63;5052199;28;20408;-72
2023/01/20 06:50:50;;;;;;;58.20;30.92;;;-0.80;99.90;;;-2.36;100.00;97020.75;5052243;28;20535;-73
2023/01/20 06:53:16;;;;;;;63.57;32.03;;;-0.90;99.90;;;-2.39;100.00;97021.91;5052197;28;20419;-73
2023/01/20 06:55:42;;;;;;;52.75;28.95;;;-0.90;99.90;;;-2.47;100.00;97032.34;5052366;28;20429;-73
2023/01/20 06:58:09;;;;;;;55.80;29.50;;;-1.00;99.90;;;-2.53;100.00;97034.84;5052130;28;20402;-74
2023/01/20 07:00:35;;;;;;;60.95;30.23;;;-1.00;99.90;;;-2.55;100.00;97037.63;5052360;28;20397;-73
2023/01/20 07:03:01;;;;;;;58.55;29.30;;;-1.10;99.90;;;-2.53;100.00;97043.44;5052289;28;20499;-73
2023/01/20 07:05:27;;;;;;;56.58;28.85;;;-1.10;99.90;;;-2.55;100.00;97049.75;5051078;28;20413;-72
2023/01/20 07:07:53;;;;;;;62.72;30.83;;;-1.10;99.90;;;-2.52;100.00;97050.22;5056261;28;20416;-72
2023/01/20 07:10:19;;;;;;;53.58;27.67;;;-1.10;99.90;;;-2.46;100.00;97059.06;5070536;28;20419;-73
2023/01/20 07:12:45;;;;;;;55.42;30.55;;;-1.00;99.90;;;-2.39;100.00;97068.56;5063664;28;20399;-73
2023/01/20 07:15:12;;;;;;;61.33;29.75;;;-1.00;99.90;;;-2.36;100.00;97060.44;5072018;28;20478;-72
2023/01/20 07:17:38;;;;;;;51.58;28.83;;;-0.90;99.90;;;-2.35;100.00;97059.47;5071763;28;20433;-73
2023/01/20 07:20:05;;;;;;;48.97;27.17;;;-0.90;99.90;;;-2.31;100.00;97067.66;5071889;28;20896;-73
2023/01/20 07:22:31;;;;;;;52.08;28.77;;;-0.90;99.90;;;-2.29;100.00;97072.69;5071673;28;20758;-73
2023/01/20 07:24:57;;;;;;;46.80;25.50;;;-0.90;99.90;;;-2.25;100.00;97082.50;5071884;28;20411;-72
2023/01/20 07:27:23;;;;;;;51.25;26.75;;;-0.80;99.90;;;-2.21;100.00;97077.78;5071555;28;20443;-72
2023/01/20 07:29:49;;;;;;;51.03;27.30;;;-0.80;99.90;;;-2.15;100.00;97087.44;5071707;28;20422;-73
2023/01/20 07:32:16;;;;;;;54.22;27.90;;;-0.70;99.90;;;-2.12;100.00;97087.09;5071730;28;20411;-73
2023/01/20 07:34:42;;;;;;;56.80;28.27;;;-0.70;99.90;;;-2.11;100.00;97091.31;5071476;28;20404;-73
2023/01/20 07:37:08;;;;;;;45.83;25.88;;;-0.70;99.90;;;-2.11;100.00;97099.88;5071527;28;20460;-73
2023/01/20 07:39:35;;;;;;;42.83;23.67;;;-0.70;99.90;;;-2.09;100.00;97100.50;5071525;28;20395;-74
2023/01/20 07:42:01;;;;;;;50.85;26.27;;;-0.70;99.90;;;-2.05;100.00;97106.13;5071540;28;20411;-73
2023/01/20 07:44:26;;;;;;;40.35;22.50;;;-0.60;99.90;;;-2.00;100.00;97112.38;5071488;28;20834;-73
2023/01/20 07:46:53;;;;;;;44.60;25.15;;;-0.60;99.90;;;-1.96;100.00;97108.47;5071486;28;20400;-74
2023/01/20 07:49:20;;;;;;;46.03;23.88;;;-0.50;99.90;;;-1.90;100.00;97116.50;5071008;28;20408;-74
2023/01/20 07:51:46;;;;;;;44.50;24.15;;;-0.50;99.90;;;-1.88;100.00;97115.31;5071446;28;20444;-73
2023/01/20 07:54:12;;;;;;;43.40;22.80;;;-0.50;99.90;;;-1.83;100.00;97117.41;5053316;28;20504;-74
2023/01/20 07:56:38;;;;;;;46.42;22.98;;;-0.50;99.90;;;-1.80;100.00;97119.63;5071269;28;20427;-73
2023/01/20 07:59:04;;;;;;;37.53;20.73;;;-0.40;99.90;;;-1.73;100.00;97123.13;5070789;28;20400;-74
2023/01/20 08:01:31;;;;;;;39.97;21.90;;;-0.40;99.90;;;-1.70;100.00;97133.94;5071179;28;20395;-74
2023/01/20 08:04:01;;;;;;;40.58;21.50;;;-0.30;99.90;;;-1.64;100.00;97133.22;5070950;28;20407;-74
2023/01/20 08:06:29;;;;;;;38.10;21.35;;;-0.30;99.90;;;-1.59;100.00;97143.06;5071026;28;20442;-73
2023/01/20 08:08:59;;;;;;;39.10;20.60;;;-0.20;99.90;;;-1.57;100.00;97141.88;5070844;28;20396;-72
2023/01/20 08:11:25;;;;;;;35.90;20.07;;;-0.20;99.90;;;-1.53;100.00;97144.13;5070981;28;20396;-73
2023/01/20 08:13:51;;;;;;;37.88;21.02;;;-0.20;99.90;;;-1.48;100.00;97145.19;5070830;28;20460;-73
2023/01/20 08:16:18;;;;;;;42.45;21.67;;;-0.10;99.90;;;-1.47;100.00;97149.41;5070763;28;20494;-72
2023/01/20 08:18:45;;;;;;;34.60;20.08;;;-0.10;99.90;;;-1.40;100.00;97149.47;5070560;28;20396;-73
2023/01/20 08:21:19;;;;;;;42.97;22.83;;;-0.10;99.90;;;-1.39;100.00;97157.09;5070852;28;20403;-73
2023/01/20 08:23:46;;;;;;;40.72;21.25;;;0.00;99.90;;;-1.36;100.00;97155.94;5069415;28;20423;-73
2023/01/20 08:26:12;;;;;;;36.58;21.58;;;0.00;99.90;;;-1.28;100.00;97158.44;5070827;28;20407;-73
2023/01/20 08:28:38;;;;;;;39.92;20.77;;;0.10;99.90;;;-1.27;100.00;97154.81;5070508;28;20396;-73
2023/01/20 08:31:06;;;;;;;34.90;19.85;;;0.10;99.90;;;-1.22;100.00;97170.69;5070618;28;20419;-72
2023/01/20 08:33:32;;;;;;;37.83;18.77;;;0.10;99.90;;;-1.16;100.00;97162.16;5070447;28;20402;-73
2023/01/20 08:36:05;;;;;;;34.90;20.48;;;0.20;99.90;;;-1.12;100.00;97163.38;5070587;28;20403;-73
2023/01/20 08:38:31;;;;;;;33.10;18.02;;;0.20;99.90;;;-1.21;100.00;97170.50;5070404;28;20464;-73
2023/01/20 08:40:58;;;;;;;29.67;17.80;;;0.10;99.90;;;-1.27;100.00;97168.59;5070383;28;20392;-72
2023/01/20 08:43:24;;;;;;;31.77;18.10;;;0.10;99.90;;;-1.23;100.00;97172.47;5062264;28;20415;-74
2023/01/20 08:45:58;;;;;;;36.40;18.92;;;0.10;99.90;;;-1.26;100.00;97179.81;5069055;28;20488;-74
2023/01/20 08:48:24;;;;;;;30.17;17.60;;;0.10;99.90;;;-1.19;100.00;97186.69;5069872;28;20407;-74
2023/01/20 08:50:50;;;;;;;28.48;17.63;;;0.20;99.90;;;-1.21;100.00;97188.69;5069756;28;20416;-73
2023/01/20 08:53:16;;;;;;;28.85;17.35;;;0.20;99.90;;;-1.18;100.00;97190.09;5070034;28;20495;-74
2023/01/20 08:55:42;;;;;;;33.43;18.83;;;0.20;99.90;;;-1.21;100.00;97191.28;5070342;28;20423;-74
2023/01/20 08:58:11;;;;;;;28.25;17.40;;;0.10;99.90;;;-1.20;100.00;97194.66;5069095;28;20502;-73
2023/01/20 09:00:36;;;;;;;25.53;17.60;;;0.20;99.90;;;-1.29;100.00;97196.56;5051851;28;20399;-73
2023/01/20 09:03:03;;;;;;;26.08;17.13;;;0.10;99.90;;;-1.25;100.00;97202.19;5069571;28;20415;-73
2023/01/20 09:05:29;;;;;;;31.30;17.67;;;0.10;99.90;;;-1.23;100.00;97201.03;5069943;28;20399;-73
2023/01/20 09:07:55;;;;;;;31.53;17.80;;;0.10;99.90;;;-1.21;100.00;97203.44;5069924;28;20404;-74
2023/01/20 09:10:21;;;;;;;27.45;17.20;;;0.10;99.90;;;-1.09;100.00;97206.38;5069847;28;20490;-73
2023/01/20 09:12:47;;;;;;;26.58;15.55;;;0.30;99.90;;;-1.16;100.00;97206.31;5069941;28;20861;-74
2023/01/20 09:15:14;;;;;;;25.08;16.27;;;0.20;99.90;;;-1.10;100.00;97212.56;5069972;28;20800;-73
2023/01/20 09:17:40;;;;;;;26.25;15.32;;;0.30;99.90;;;-1.08;100.00;97211.41;5069669;28;20407;-72
2023/01/20 09:20:08;;;;;;;29.20;17.50;;;0.20;99.90;;;-1.10;100.00;97217.75;5069824;28;20407;-73
2023/01/20 09:22:34;;;;;;;25.35;15.85;;;0.30;99.90;;;-1.08;100.00;97219.19;5069839;28;20535;-73
2023/01/20 09:25:01;;;;;;;29.70;16.35;;;0.30;99.90;;;-1.17;100.00;97223.66;5068820;28;20404;-74
2023/01/20 09:27:27;;;;;;;28.65;16.75;;;0.20;99.90;;;-1.09;100.00;97221.97;5069427;28;20506;-74
2023/01/20 09:29:53;;;;;;;29.35;17.50;;;0.20;99.90;;;-1.12;100.00;97230.91;5068688;28;21002;-74
2023/01/20 09:32:20;;;;;;;26.98;16.67;;;0.30;99.90;;;-1.14;100.00;97230.31;5069504;28;20435;-73
2023/01/20 09:34:46;;;;;;;29.75;17.63;;;0.20;99.90;;;-1.18;100.00;97234.22;5069474;28;20427;-73
2023/01/20 09:45:53;;;;;;;28.05;16.00;;;0.20;99.90;;;-1.24;100.00;97238.38;5069679;28;20804;-73
2023/01/20 09:54:14;;;;;;;29.95;15.90;;;0.10;99.90;;;-1.18;100.00;97244.63;5068756;28;20410;-73
2023/01/20 09:56:48;;;;;;;25.05;15.70;;;0.20;99.90;;;-1.14;100.00;97252.88;5069555;28;20406;-73
2023/01/20 09:59:22;;;;;;;27.70;15.95;;;0.20;99.90;;;-1.12;100.00;97251.69;5061315;28;20483;-72
2023/01/20 10:01:51;;;;;;;31.80;17.85;;;0.20;99.90;;;-1.15;100.00;97246.06;5069313;28;20470;-73
2023/01/20 10:04:24;;;;;;;29.13;15.77;;;0.20;99.90;;;-1.17;100.00;97254.03;5069305;28;20396;-73
2023/01/20 10:06:54;;;;;;;28.45;17.20;;;0.20;99.90;;;-1.09;100.00;97253.13;5069532;28;20430;-73
2023/01/20 10:09:27;;;;;;;32.25;19.05;;;0.30;99.90;;;-1.02;100.00;97256.59;5051128;28;20408;-73
2023/01/20 10:12:01;;;;;;;27.75;16.13;;;0.30;99.90;;;-0.88;100.00;97248.78;5069618;28;20404;-73
2023/01/20 10:14:33;;;;;;;21.45;13.82;;;0.50;99.90;;;-0.62;100.00;97250.91;5068535;28;20479;-73
2023/01/20 10:17:09;;;;;;;22.02;13.05;;;0.70;99.90;;;-0.53;100.00;97242.00;5070587;28;20411;-72
2023/01/20 10:19:44;;;;;;;21.77;13.63;;;0.80;99.90;;;-0.62;100.00;97250.91;5072789;28;20873;-73
2023/01/20 10:22:16;;;;;;;21.75;13.65;;;0.70;99.90;;;-0.74;100.00;97254.94;5069103;28;20407;-73